Terminal Aerodrome Forecast
Issued by NWS

Home | Current Version | Previous Version | Text Only | Print | Product List | Glossary Off
Versions: 1 2 3 4 5 6 7 8 9 10 11 12 13 14 15

408
FTUS43 KMPX 131128
TAFRWF
TAF
KRWF 131128Z 1312/1412 32002KT P6SM SCT250
     FM131400 14007KT P6SM SCT120 BKN200
     FM132000 15012KT P6SM BKN050 OVC090
     FM140300 14014G23KT 1 1/2SM -SN BLSN BKN025 OVC040
      TEMPO 1406/1410 3/4SM -SN OVC015=

USA.gov is the U.S. government's official web portal to all federal, state and local government web resources and services.